sensor_id;sensor_type;location;lat;lon;timestamp;P1;durP1;ratioP1;P2;durP2;ratioP2
70122;SDS011;57489;37.404;24.920;2023-04-03T00:02:25;8.30;;;2.23;;
70122;SDS011;57489;37.404;24.920;2023-04-03T00:07:25;8.03;;;1.90;;
70122;SDS011;57489;37.404;24.920;2023-04-03T00:12:26;6.37;;;1.90;;
70122;SDS011;57489;37.404;24.920;2023-04-03T00:17:26;8.03;;;2.07;;
70122;SDS011;57489;37.404;24.920;2023-04-03T00:22:27;7.17;;;2.03;;
70122;SDS011;57489;37.404;24.920;2023-04-03T00:27:27;5.60;;;1.80;;
70122;SDS011;57489;37.404;24.920;2023-04-03T00:32:27;4.90;;;1.52;;
70122;SDS011;57489;37.404;24.920;2023-04-03T00:37:28;5.87;;;2.00;;
70122;SDS011;57489;37.404;24.920;2023-04-03T00:42:29;5.63;;;1.90;;
70122;SDS011;57489;37.404;24.920;2023-04-03T00:47:30;5.13;;;2.07;;
70122;SDS011;57489;37.404;24.920;2023-04-03T00:52:31;6.15;;;1.92;;
70122;SDS011;57489;37.404;24.920;2023-04-03T00:57:31;7.77;;;2.47;;
70122;SDS011;57489;37.404;24.920;2023-04-03T01:02:33;5.38;;;1.75;;
70122;SDS011;57489;37.404;24.920;2023-04-03T01:07:33;7.73;;;2.70;;
70122;SDS011;57489;37.404;24.920;2023-04-03T01:12:37;5.63;;;2.03;;
70122;SDS011;57489;37.404;24.920;2023-04-03T01:17:40;5.55;;;1.60;;
70122;SDS011;57489;37.404;24.920;2023-04-03T01:28:11;8.45;;;2.05;;
70122;SDS011;57489;37.404;24.920;2023-04-03T01:33:17;6.68;;;2.22;;
70122;SDS011;57489;37.404;24.920;2023-04-03T01:38:17;5.67;;;2.07;;
70122;SDS011;57489;37.404;24.920;2023-04-03T01:43:18;5.07;;;2.13;;
70122;SDS011;57489;37.404;24.920;2023-04-03T01:48:18;4.90;;;1.57;;
70122;SDS011;57489;37.404;24.920;2023-04-03T01:53:19;4.57;;;1.77;;
70122;SDS011;57489;37.404;24.920;2023-04-03T01:58:19;8.60;;;2.00;;
70122;SDS011;57489;37.404;24.920;2023-04-03T02:03:20;6.13;;;2.20;;
70122;SDS011;57489;37.404;24.920;2023-04-03T02:08:20;6.50;;;2.20;;
70122;SDS011;57489;37.404;24.920;2023-04-03T02:13:21;7.37;;;2.00;;
70122;SDS011;57489;37.404;24.920;2023-04-03T02:18:21;6.43;;;2.23;;
70122;SDS011;57489;37.404;24.920;2023-04-03T02:23:22;5.57;;;2.07;;
70122;SDS011;57489;37.404;24.920;2023-04-03T02:28:22;5.33;;;1.40;;
70122;SDS011;57489;37.404;24.920;2023-04-03T02:33:22;5.00;;;1.77;;
70122;SDS011;57489;37.404;24.920;2023-04-03T02:38:23;6.73;;;2.00;;
70122;SDS011;57489;37.404;24.920;2023-04-03T02:43:24;6.45;;;2.05;;
70122;SDS011;57489;37.404;24.920;2023-04-03T02:48:25;5.47;;;2.00;;
70122;SDS011;57489;37.404;24.920;2023-04-03T02:53:26;4.95;;;1.73;;
70122;SDS011;57489;37.404;24.920;2023-04-03T02:58:26;8.77;;;2.00;;
70122;SDS011;57489;37.404;24.920;2023-04-03T03:03:26;4.10;;;1.27;;
70122;SDS011;57489;37.404;24.920;2023-04-03T03:08:27;7.27;;;2.20;;
70122;SDS011;57489;37.404;24.920;2023-04-03T03:13:28;7.97;;;1.67;;
70122;SDS011;57489;37.404;24.920;2023-04-03T03:18:29;7.40;;;2.35;;
70122;SDS011;57489;37.404;24.920;2023-04-03T03:23:30;6.23;;;1.97;;
70122;SDS011;57489;37.404;24.920;2023-04-03T03:28:32;8.68;;;2.40;;
70122;SDS011;57489;37.404;24.920;2023-04-03T03:33:33;9.77;;;2.20;;
70122;SDS011;57489;37.404;24.920;2023-04-03T03:38:33;10.82;;;2.22;;
70122;SDS011;57489;37.404;24.920;2023-04-03T03:43:34;8.03;;;1.50;;
70122;SDS011;57489;37.404;24.920;2023-04-03T03:48:34;7.03;;;1.90;;
70122;SDS011;57489;37.404;24.920;2023-04-03T03:53:35;5.27;;;1.97;;
70122;SDS011;57489;37.404;24.920;2023-04-03T03:58:35;8.87;;;2.27;;
70122;SDS011;57489;37.404;24.920;2023-04-03T04:03:36;8.87;;;2.33;;
70122;SDS011;57489;37.404;24.920;2023-04-03T04:08:36;6.60;;;1.73;;
70122;SDS011;57489;37.404;24.920;2023-04-03T04:13:36;5.87;;;1.87;;
70122;SDS011;57489;37.404;24.920;2023-04-03T04:18:37;9.98;;;1.60;;
70122;SDS011;57489;37.404;24.920;2023-04-03T04:23:37;8.13;;;1.77;;
70122;SDS011;57489;37.404;24.920;2023-04-03T04:28:38;3.63;;;1.47;;
70122;SDS011;57489;37.404;24.920;2023-04-03T04:33:38;6.97;;;1.90;;
70122;SDS011;57489;37.404;24.920;2023-04-03T04:38:39;5.13;;;1.83;;
70122;SDS011;57489;37.404;24.920;2023-04-03T04:43:39;9.30;;;2.23;;
70122;SDS011;57489;37.404;24.920;2023-04-03T04:48:40;7.07;;;1.60;;
70122;SDS011;57489;37.404;24.920;2023-04-03T04:53:40;11.40;;;3.70;;
70122;SDS011;57489;37.404;24.920;2023-04-03T04:58:41;7.22;;;2.38;;
70122;SDS011;57489;37.404;24.920;2023-04-03T05:03:42;8.03;;;2.50;;
70122;SDS011;57489;37.404;24.920;2023-04-03T05:08:42;8.10;;;2.13;;
70122;SDS011;57489;37.404;24.920;2023-04-03T05:13:43;10.73;;;2.63;;
70122;SDS011;57489;37.404;24.920;2023-04-03T05:18:44;13.83;;;3.20;;
70122;SDS011;57489;37.404;24.920;2023-04-03T05:23:44;19.13;;;3.80;;
70122;SDS011;57489;37.404;24.920;2023-04-03T05:28:45;16.70;;;3.13;;
70122;SDS011;57489;37.404;24.920;2023-04-03T05:33:45;21.10;;;4.33;;
70122;SDS011;57489;37.404;24.920;2023-04-03T05:38:46;19.37;;;4.40;;
70122;SDS011;57489;37.404;24.920;2023-04-03T05:43:46;23.08;;;5.15;;
70122;SDS011;57489;37.404;24.920;2023-04-03T05:48:47;25.57;;;5.33;;
70122;SDS011;57489;37.404;24.920;2023-04-03T05:53:47;22.80;;;4.47;;
70122;SDS011;57489;37.404;24.920;2023-04-03T05:58:50;17.40;;;4.93;;
70122;SDS011;57489;37.404;24.920;2023-04-03T06:03:50;21.37;;;4.53;;
70122;SDS011;57489;37.404;24.920;2023-04-03T06:08:51;18.60;;;4.30;;
70122;SDS011;57489;37.404;24.920;2023-04-03T06:13:51;19.42;;;4.32;;
70122;SDS011;57489;37.404;24.920;2023-04-03T06:18:52;16.30;;;4.10;;
70122;SDS011;57489;37.404;24.920;2023-04-03T06:23:52;16.93;;;3.93;;
70122;SDS011;57489;37.404;24.920;2023-04-03T06:28:53;26.87;;;4.63;;
70122;SDS011;57489;37.404;24.920;2023-04-03T06:33:53;18.53;;;3.73;;
70122;SDS011;57489;37.404;24.920;2023-04-03T06:38:54;16.53;;;3.97;;
70122;SDS011;57489;37.404;24.920;2023-04-03T06:43:54;21.07;;;4.37;;
70122;SDS011;57489;37.404;24.920;2023-04-03T06:48:55;20.50;;;4.10;;
70122;SDS011;57489;37.404;24.920;2023-04-03T06:53:58;15.97;;;4.63;;
70122;SDS011;57489;37.404;24.920;2023-04-03T06:58:59;16.43;;;3.47;;
70122;SDS011;57489;37.404;24.920;2023-04-03T07:04:00;22.80;;;3.03;;
70122;SDS011;57489;37.404;24.920;2023-04-03T07:09:00;15.88;;;3.53;;
70122;SDS011;57489;37.404;24.920;2023-04-03T07:14:01;15.80;;;2.80;;
70122;SDS011;57489;37.404;24.920;2023-04-03T07:19:03;12.52;;;2.80;;
70122;SDS011;57489;37.404;24.920;2023-04-03T07:24:03;17.70;;;2.90;;
70122;SDS011;57489;37.404;24.920;2023-04-03T07:29:04;21.07;;;3.53;;
70122;SDS011;57489;37.404;24.920;2023-04-03T07:34:04;16.57;;;3.93;;
70122;SDS011;57489;37.404;24.920;2023-04-03T07:39:04;16.27;;;2.77;;
70122;SDS011;57489;37.404;24.920;2023-04-03T07:44:05;15.60;;;3.73;;
70122;SDS011;57489;37.404;24.920;2023-04-03T07:49:06;20.33;;;3.77;;
70122;SDS011;57489;37.404;24.920;2023-04-03T07:54:06;21.00;;;4.30;;
70122;SDS011;57489;37.404;24.920;2023-04-03T07:59:07;14.90;;;3.27;;
70122;SDS011;57489;37.404;24.920;2023-04-03T08:04:07;19.70;;;3.47;;
70122;SDS011;57489;37.404;24.920;2023-04-03T08:09:07;14.63;;;2.67;;
70122;SDS011;57489;37.404;24.920;2023-04-03T08:14:08;23.27;;;3.87;;
70122;SDS011;57489;37.404;24.920;2023-04-03T08:19:08;14.77;;;3.43;;
70122;SDS011;57489;37.404;24.920;2023-04-03T08:24:09;20.23;;;4.17;;
70122;SDS011;57489;37.404;24.920;2023-04-03T08:29:09;18.83;;;2.90;;
70122;SDS011;57489;37.404;24.920;2023-04-03T08:34:10;13.23;;;3.13;;
70122;SDS011;57489;37.404;24.920;2023-04-03T08:39:11;13.97;;;3.53;;
70122;SDS011;57489;37.404;24.920;2023-04-03T08:49:42;12.90;;;2.90;;
70122;SDS011;57489;37.404;24.920;2023-04-03T08:54:50;12.85;;;3.22;;
70122;SDS011;57489;37.404;24.920;2023-04-03T08:59:53;15.07;;;3.40;;
70122;SDS011;57489;37.404;24.920;2023-04-03T09:04:54;15.83;;;2.83;;
70122;SDS011;57489;37.404;24.920;2023-04-03T09:09:55;12.13;;;3.13;;
70122;SDS011;57489;37.404;24.920;2023-04-03T09:20:36;16.52;;;3.60;;
70122;SDS011;57489;37.404;24.920;2023-04-03T09:25:39;14.20;;;3.23;;
70122;SDS011;57489;37.404;24.920;2023-04-03T09:30:39;12.50;;;3.42;;
70122;SDS011;57489;37.404;24.920;2023-04-03T09:35:40;12.23;;;2.77;;
70122;SDS011;57489;37.404;24.920;2023-04-03T09:40:42;13.27;;;4.13;;
70122;SDS011;57489;37.404;24.920;2023-04-03T09:45:48;15.40;;;3.33;;
70122;SDS011;57489;37.404;24.920;2023-04-03T09:55:50;15.80;;;3.97;;
70122;SDS011;57489;37.404;24.920;2023-04-03T10:00:55;13.90;;;3.03;;
70122;SDS011;57489;37.404;24.920;2023-04-03T10:05:57;10.82;;;3.03;;
70122;SDS011;57489;37.404;24.920;2023-04-03T10:11:31;11.43;;;2.93;;
70122;SDS011;57489;37.404;24.920;2023-04-03T10:21:48;13.30;;;2.58;;
70122;SDS011;57489;37.404;24.920;2023-04-03T10:26:59;12.73;;;2.73;;
70122;SDS011;57489;37.404;24.920;2023-04-03T10:43:12;12.37;;;2.57;;
70122;SDS011;57489;37.404;24.920;2023-04-03T10:53:34;15.50;;;2.67;;
70122;SDS011;57489;37.404;24.920;2023-04-03T10:58:45;13.93;;;2.73;;
70122;SDS011;57489;37.404;24.920;2023-04-03T11:03:54;11.90;;;2.60;;
70122;SDS011;57489;37.404;24.920;2023-04-03T11:09:01;13.75;;;2.78;;
70122;SDS011;57489;37.404;24.920;2023-04-03T11:14:08;12.02;;;2.78;;
70122;SDS011;57489;37.404;24.920;2023-04-03T11:19:33;12.63;;;2.90;;
70122;SDS011;57489;37.404;24.920;2023-04-03T11:24:39;13.23;;;2.70;;
70122;SDS011;57489;37.404;24.920;2023-04-03T11:29:42;15.90;;;3.50;;
70122;SDS011;57489;37.404;24.920;2023-04-03T11:34:49;16.10;;;2.60;;
70122;SDS011;57489;37.404;24.920;2023-04-03T11:39:56;14.57;;;2.58;;
70122;SDS011;57489;37.404;24.920;2023-04-03T12:05:43;19.15;;;3.00;;
70122;SDS011;57489;37.404;24.920;2023-04-03T12:10:59;14.67;;;3.37;;
70122;SDS011;57489;37.404;24.920;2023-04-03T12:16:20;15.37;;;3.20;;
70122;SDS011;57489;37.404;24.920;2023-04-03T12:37:38;18.38;;;3.70;;
70122;SDS011;57489;37.404;24.920;2023-04-03T12:43:05;15.52;;;3.10;;
70122;SDS011;57489;37.404;24.920;2023-04-03T12:48:28;15.37;;;4.13;;
70122;SDS011;57489;37.404;24.920;2023-04-03T12:53:34;21.42;;;3.38;;
70122;SDS011;57489;37.404;24.920;2023-04-03T12:58:36;10.65;;;2.40;;
70122;SDS011;57489;37.404;24.920;2023-04-03T13:03:37;12.57;;;2.70;;
70122;SDS011;57489;37.404;24.920;2023-04-03T13:08:47;19.53;;;3.43;;
70122;SDS011;57489;37.404;24.920;2023-04-03T13:13:58;16.15;;;3.15;;
70122;SDS011;57489;37.404;24.920;2023-04-03T13:19:00;15.95;;;3.05;;
70122;SDS011;57489;37.404;24.920;2023-04-03T13:24:01;15.63;;;2.73;;
70122;SDS011;57489;37.404;24.920;2023-04-03T13:29:04;12.13;;;3.33;;
70122;SDS011;57489;37.404;24.920;2023-04-03T13:49:27;11.77;;;2.47;;
70122;SDS011;57489;37.404;24.920;2023-04-03T13:54:37;9.20;;;2.55;;
70122;SDS011;57489;37.404;24.920;2023-04-03T13:59:39;14.40;;;2.40;;
70122;SDS011;57489;37.404;24.920;2023-04-03T14:09:39;13.40;;;3.10;;
70122;SDS011;57489;37.404;24.920;2023-04-03T14:14:40;14.97;;;2.33;;
70122;SDS011;57489;37.404;24.920;2023-04-03T14:19:41;12.27;;;2.37;;
70122;SDS011;57489;37.404;24.920;2023-04-03T14:24:42;10.82;;;3.08;;
70122;SDS011;57489;37.404;24.920;2023-04-03T14:29:43;13.80;;;2.60;;
70122;SDS011;57489;37.404;24.920;2023-04-03T14:34:44;15.00;;;2.72;;
70122;SDS011;57489;37.404;24.920;2023-04-03T14:39:46;12.18;;;2.50;;
70122;SDS011;57489;37.404;24.920;2023-04-03T14:44:47;11.97;;;2.67;;
70122;SDS011;57489;37.404;24.920;2023-04-03T14:49:48;7.82;;;1.85;;
70122;SDS011;57489;37.404;24.920;2023-04-03T14:54:49;11.63;;;2.23;;
70122;SDS011;57489;37.404;24.920;2023-04-03T14:59:51;7.65;;;1.90;;
70122;SDS011;57489;37.404;24.920;2023-04-03T15:04:53;10.45;;;2.58;;
70122;SDS011;57489;37.404;24.920;2023-04-03T15:09:54;14.43;;;2.43;;
70122;SDS011;57489;37.404;24.920;2023-04-03T15:14:55;9.23;;;2.47;;
70122;SDS011;57489;37.404;24.920;2023-04-03T15:19:55;9.20;;;2.17;;
70122;SDS011;57489;37.404;24.920;2023-04-03T15:24:56;6.40;;;1.53;;
70122;SDS011;57489;37.404;24.920;2023-04-03T15:29:56;13.07;;;2.17;;
70122;SDS011;57489;37.404;24.920;2023-04-03T15:34:56;6.87;;;1.70;;
70122;SDS011;57489;37.404;24.920;2023-04-03T15:39:58;10.90;;;2.07;;
70122;SDS011;57489;37.404;24.920;2023-04-03T15:44:58;8.30;;;1.85;;
70122;SDS011;57489;37.404;24.920;2023-04-03T15:49:59;7.30;;;1.70;;
70122;SDS011;57489;37.404;24.920;2023-04-03T15:54:59;6.47;;;1.40;;
70122;SDS011;57489;37.404;24.920;2023-04-03T16:00:00;8.43;;;2.40;;
70122;SDS011;57489;37.404;24.920;2023-04-03T16:05:01;12.70;;;2.20;;
70122;SDS011;57489;37.404;24.920;2023-04-03T16:10:02;8.87;;;1.60;;
70122;SDS011;57489;37.404;24.920;2023-04-03T16:15:04;7.90;;;1.77;;
70122;SDS011;57489;37.404;24.920;2023-04-03T16:20:05;9.93;;;1.92;;
70122;SDS011;57489;37.404;24.920;2023-04-03T16:25:07;9.40;;;1.80;;
70122;SDS011;57489;37.404;24.920;2023-04-03T16:30:09;8.48;;;2.28;;
70122;SDS011;57489;37.404;24.920;2023-04-03T16:35:10;8.20;;;1.87;;
70122;SDS011;57489;37.404;24.920;2023-04-03T16:40:11;9.13;;;1.60;;
70122;SDS011;57489;37.404;24.920;2023-04-03T16:45:12;8.60;;;1.80;;
70122;SDS011;57489;37.404;24.920;2023-04-03T16:50:13;10.40;;;1.98;;
70122;SDS011;57489;37.404;24.920;2023-04-03T16:55:13;5.33;;;1.50;;
70122;SDS011;57489;37.404;24.920;2023-04-03T17:00:14;6.43;;;2.17;;
70122;SDS011;57489;37.404;24.920;2023-04-03T17:05:15;8.73;;;1.83;;
70122;SDS011;57489;37.404;24.920;2023-04-03T17:10:16;7.30;;;1.98;;
70122;SDS011;57489;37.404;24.920;2023-04-03T17:15:17;10.57;;;2.37;;
70122;SDS011;57489;37.404;24.920;2023-04-03T17:20:18;7.93;;;1.27;;
70122;SDS011;57489;37.404;24.920;2023-04-03T17:25:19;8.87;;;2.13;;
70122;SDS011;57489;37.404;24.920;2023-04-03T17:30:20;9.13;;;2.38;;
70122;SDS011;57489;37.404;24.920;2023-04-03T17:35:20;7.20;;;1.80;;
70122;SDS011;57489;37.404;24.920;2023-04-03T17:40:20;7.37;;;1.30;;
70122;SDS011;57489;37.404;24.920;2023-04-03T17:45:21;7.57;;;1.90;;
70122;SDS011;57489;37.404;24.920;2023-04-03T17:50:21;9.97;;;1.70;;
70122;SDS011;57489;37.404;24.920;2023-04-03T17:55:22;6.67;;;1.60;;
70122;SDS011;57489;37.404;24.920;2023-04-03T18:00:23;6.77;;;1.97;;
70122;SDS011;57489;37.404;24.920;2023-04-03T18:05:29;8.23;;;1.57;;
70122;SDS011;57489;37.404;24.920;2023-04-03T18:10:30;8.07;;;1.63;;
70122;SDS011;57489;37.404;24.920;2023-04-03T18:15:31;9.53;;;1.80;;
70122;SDS011;57489;37.404;24.920;2023-04-03T18:20:31;9.37;;;2.33;;
70122;SDS011;57489;37.404;24.920;2023-04-03T18:25:32;9.23;;;1.90;;
70122;SDS011;57489;37.404;24.920;2023-04-03T18:30:32;10.00;;;1.80;;
70122;SDS011;57489;37.404;24.920;2023-04-03T18:35:34;12.33;;;1.83;;
70122;SDS011;57489;37.404;24.920;2023-04-03T18:40:34;7.53;;;1.63;;
70122;SDS011;57489;37.404;24.920;2023-04-03T18:45:35;8.90;;;2.05;;
70122;SDS011;57489;37.404;24.920;2023-04-03T18:50:35;11.13;;;1.80;;
70122;SDS011;57489;37.404;24.920;2023-04-03T18:55:36;7.67;;;1.80;;
70122;SDS011;57489;37.404;24.920;2023-04-03T19:00:37;12.30;;;2.00;;
70122;SDS011;57489;37.404;24.920;2023-04-03T19:05:38;11.38;;;1.70;;
70122;SDS011;57489;37.404;24.920;2023-04-03T19:10:39;8.27;;;1.37;;
70122;SDS011;57489;37.404;24.920;2023-04-03T19:15:39;9.30;;;1.70;;
70122;SDS011;57489;37.404;24.920;2023-04-03T19:20:40;8.43;;;2.27;;
70122;SDS011;57489;37.404;24.920;2023-04-03T19:25:40;6.93;;;1.93;;
70122;SDS011;57489;37.404;24.920;2023-04-03T19:30:41;9.03;;;1.90;;
70122;SDS011;57489;37.404;24.920;2023-04-03T19:35:41;10.43;;;2.10;;
70122;SDS011;57489;37.404;24.920;2023-04-03T19:40:42;8.13;;;2.27;;
70122;SDS011;57489;37.404;24.920;2023-04-03T19:45:43;12.10;;;1.77;;
70122;SDS011;57489;37.404;24.920;2023-04-03T19:50:44;8.83;;;1.50;;
70122;SDS011;57489;37.404;24.920;2023-04-03T19:55:45;12.20;;;2.00;;
70122;SDS011;57489;37.404;24.920;2023-04-03T20:00:45;6.87;;;1.80;;
70122;SDS011;57489;37.404;24.920;2023-04-03T20:05:46;9.57;;;2.20;;
70122;SDS011;57489;37.404;24.920;2023-04-03T20:10:47;11.83;;;2.03;;
70122;SDS011;57489;37.404;24.920;2023-04-03T20:15:47;7.95;;;2.58;;
70122;SDS011;57489;37.404;24.920;2023-04-03T20:20:51;8.33;;;2.40;;
70122;SDS011;57489;37.404;24.920;2023-04-03T20:25:54;9.63;;;2.13;;
70122;SDS011;57489;37.404;24.920;2023-04-03T20:30:56;10.30;;;2.70;;
70122;SDS011;57489;37.404;24.920;2023-04-03T20:35:57;13.38;;;2.53;;
70122;SDS011;57489;37.404;24.920;2023-04-03T20:40:57;9.30;;;2.00;;
70122;SDS011;57489;37.404;24.920;2023-04-03T20:45:58;7.77;;;1.83;;
70122;SDS011;57489;37.404;24.920;2023-04-03T20:51:09;10.83;;;2.17;;
70122;SDS011;57489;37.404;24.920;2023-04-03T20:56:15;12.93;;;2.10;;
70122;SDS011;57489;37.404;24.920;2023-04-03T21:01:20;13.07;;;2.17;;
70122;SDS011;57489;37.404;24.920;2023-04-03T21:22:53;10.50;;;2.50;;
70122;SDS011;57489;37.404;24.920;2023-04-03T21:27:53;10.77;;;2.77;;
70122;SDS011;57489;37.404;24.920;2023-04-03T21:32:54;7.47;;;1.50;;
70122;SDS011;57489;37.404;24.920;2023-04-03T21:37:54;7.33;;;1.70;;
70122;SDS011;57489;37.404;24.920;2023-04-03T21:42:54;8.00;;;1.83;;
70122;SDS011;57489;37.404;24.920;2023-04-03T21:47:55;10.20;;;2.37;;
70122;SDS011;57489;37.404;24.920;2023-04-03T21:52:55;12.20;;;2.13;;
70122;SDS011;57489;37.404;24.920;2023-04-03T21:57:56;9.70;;;1.77;;
70122;SDS011;57489;37.404;24.920;2023-04-03T22:02:56;7.40;;;2.00;;
70122;SDS011;57489;37.404;24.920;2023-04-03T22:07:57;3.30;;;1.47;;
70122;SDS011;57489;37.404;24.920;2023-04-03T22:12:57;7.70;;;1.47;;
70122;SDS011;57489;37.404;24.920;2023-04-03T22:17:57;7.43;;;3.37;;
70122;SDS011;57489;37.404;24.920;2023-04-03T22:22:58;10.73;;;1.67;;
70122;SDS011;57489;37.404;24.920;2023-04-03T22:27:59;8.83;;;1.80;;
70122;SDS011;57489;37.404;24.920;2023-04-03T22:32:59;6.73;;;2.03;;
70122;SDS011;57489;37.404;24.920;2023-04-03T22:38:00;9.23;;;1.90;;
70122;SDS011;57489;37.404;24.920;2023-04-03T22:43:02;4.87;;;1.83;;
70122;SDS011;57489;37.404;24.920;2023-04-03T22:48:02;6.97;;;1.63;;
70122;SDS011;57489;37.404;24.920;2023-04-03T22:53:03;5.93;;;1.17;;
70122;SDS011;57489;37.404;24.920;2023-04-03T22:58:03;7.80;;;1.40;;
70122;SDS011;57489;37.404;24.920;2023-04-03T23:03:04;6.37;;;1.33;;
70122;SDS011;57489;37.404;24.920;2023-04-03T23:08:04;6.57;;;1.57;;
70122;SDS011;57489;37.404;24.920;2023-04-03T23:13:05;4.88;;;1.38;;
70122;SDS011;57489;37.404;24.920;2023-04-03T23:18:05;6.97;;;1.33;;
70122;SDS011;57489;37.404;24.920;2023-04-03T23:23:06;4.50;;;1.20;;
70122;SDS011;57489;37.404;24.920;2023-04-03T23:28:06;3.93;;;1.10;;
70122;SDS011;57489;37.404;24.920;2023-04-03T23:33:07;5.73;;;2.07;;
70122;SDS011;57489;37.404;24.920;2023-04-03T23:38:07;7.43;;;1.70;;
70122;SDS011;57489;37.404;24.920;2023-04-03T23:43:08;2.93;;;1.30;;
70122;SDS011;57489;37.404;24.920;2023-04-03T23:48:08;4.85;;;1.30;;
70122;SDS011;57489;37.404;24.920;2023-04-03T23:53:09;7.53;;;1.60;;
70122;SDS011;57489;37.404;24.920;2023-04-03T23:58:09;4.00;;;1.30;;
